Time;durP1;ratioP1;P1;durP2;ratioP2;P2;SDS_P1;SDS_P2;PMS_P1;PMS_P2;Temp;Humidity;BMP_temperature;BMP_pressure;BME280_temperature;BME280_humidity;BME280_pressure;Samples;Min_cycle;Max_cycle;Signal;HPM_P1;HPM_P2
2022/09/19 14:54:26;;;;;;;0.52;0.28;;;;;;;;;;6264972;22;20141;-59
2022/09/19 14:57:13;;;;;;;2.05;0.22;;;;;;;;;;6266613;22;20028;-50
2022/09/19 14:59:48;;;;;;;0.67;0.20;;;;;;;;;;6271973;22;20024;-60
2022/09/19 15:02:28;;;;;;;0.30;0.30;;;;;;;;;;6271665;22;20117;-59
2022/09/19 15:05:04;;;;;;;0.60;0.25;;;;;;;;;;6271573;22;20027;-59
2022/09/19 15:07:33;;;;;;;0.70;0.20;;;;;;;;;;6267621;22;20469;-58
2022/09/19 15:10:31;;;;;;;0.38;0.30;;;;;;;;;;6271336;22;20030;-59
2022/09/19 15:13:09;;;;;;;0.68;0.50;;;;;;;;;;6268435;22;20030;-59
2022/09/19 15:15:46;;;;;;;0.20;0.20;;;;;;;;;;6269040;22;20024;-57
2022/09/19 15:18:19;;;;;;;0.70;0.30;;;;;;;;;;6270353;22;20034;-59
2022/09/19 15:20:52;;;;;;;;;;;;;;;;;;6271456;22;20024;-53
2022/09/19 15:23:20;;;;;;;0.55;0.35;;;;;;;;;;6271282;22;19919;-52
2022/09/19 15:25:56;;;;;;;1.98;0.40;;;;;;;;;;6269927;22;20408;-54
2022/09/19 15:28:26;;;;;;;0.20;0.20;;;;;;;;;;6266364;22;20020;-56
2022/09/19 15:30:59;;;;;;;0.68;0.30;;;;;;;;;;6265938;22;20024;-56
2022/09/19 15:33:32;;;;;;;0.90;0.20;;;;;;;;;;6265234;22;20073;-71
2022/09/19 15:36:07;;;;;;;0.85;0.30;;;;;;;;;;6268072;22;20110;-53
2022/09/19 15:38:35;;;;;;;1.27;0.20;;;;;;;;;;6267366;22;20574;-47
2022/09/19 15:41:12;;;;;;;1.95;0.20;;;;;;;;;;6267686;22;20024;-50
2022/09/19 15:43:45;;;;;;;0.80;0.32;;;;;;;;;;6260301;22;20031;-46
2022/09/19 15:46:25;;;;;;;0.50;0.20;;;;;;;;;;6265226;22;20023;-47
2022/09/19 15:48:59;;;;;;;1.30;0.20;;;;;;;;;;6263318;22;20024;-47
2022/09/19 15:51:35;;;;;;;2.53;0.20;;;;;;;;;;6267576;22;20057;-45
2022/09/19 15:54:22;;;;;;;0.55;0.20;;;;;;;;;;6264517;22;20030;-47
2022/09/19 15:57:05;;;;;;;1.95;0.68;;;;;;;;;;6264053;22;20364;-48
2022/09/19 15:59:36;;;;;;;0.93;0.20;;;;;;;;;;6264766;22;20354;-48
2022/09/19 16:02:13;;;;;;;0.20;0.20;;;;;;;;;;6265132;22;20030;-49
2022/09/19 16:04:45;;;;;;;1.40;0.45;;;;;;;;;;6266199;22;20032;-51
2022/09/19 16:10:18;;;;;;;1.05;0.38;;;;;;;;;;6266052;22;20051;-49
2022/09/19 16:13:32;;;;;;;1.98;0.20;;;;;;;;;;6267019;22;20035;-47
2022/09/19 16:16:26;;;;;;;0.52;0.30;;;;;;;;;;6265924;22;20020;-58
2022/09/19 16:19:00;;;;;;;1.75;0.20;;;;;;;;;;6266189;22;20024;-59
2022/09/19 16:21:28;;;;;;;;;;;;;;;;;;6267154;22;20099;-59
2022/09/19 16:23:55;;;;;;;0.55;0.38;;;;;;;;;;6265790;22;19923;-59
2022/09/19 16:26:33;;;;;;;1.00;0.20;;;;;;;;;;6265136;22;20019;-59
2022/09/19 16:29:05;;;;;;;0.20;0.20;;;;;;;;;;6266187;22;20073;-58
2022/09/19 16:31:40;;;;;;;0.88;0.30;;;;;;;;;;6264799;22;20103;-58
2022/09/19 16:34:09;;;;;;;2.35;0.32;;;;;;;;;;6265271;22;20020;-70
2022/09/19 16:36:47;;;;;;;0.55;0.20;;;;;;;;;;6266902;22;20312;-71
2022/09/19 16:39:19;;;;;;;2.25;0.20;;;;;;;;;;6264727;22;20461;-71
2022/09/19 16:41:58;;;;;;;0.60;0.28;;;;;;;;;;6266262;22;20090;-71
2022/09/19 16:44:30;;;;;;;0.10;0.10;;;;;;;;;;6266555;22;20026;-71
2022/09/19 16:47:14;;;;;;;0.20;0.20;;;;;;;;;;6262658;22;20019;-71
2022/09/19 16:49:42;;;;;;;2.58;0.22;;;;;;;;;;6266671;22;20020;-57
2022/09/19 16:52:29;;;;;;;3.80;0.40;;;;;;;;;;6265723;22;20024;-48
2022/09/19 16:55:01;;;;;;;0.80;0.30;;;;;;;;;;6235578;22;20028;-69
2022/09/19 16:57:41;;;;;;;0.47;0.40;;;;;;;;;;6264832;22;20029;-69
2022/09/19 17:00:08;;;;;;;6.20;0.80;;;;;;;;;;6265393;22;20020;-70
2022/09/19 17:02:42;;;;;;;1.55;0.40;;;;;;;;;;6263573;22;20020;-69
2022/09/19 17:05:19;;;;;;;1.00;0.30;;;;;;;;;;6267584;22;20024;-69
2022/09/19 17:07:54;;;;;;;2.25;0.40;;;;;;;;;;6268122;22;20023;-69
2022/09/19 17:10:22;;;;;;;1.13;0.40;;;;;;;;;;6264536;22;20650;-45
2022/09/19 17:12:57;;;;;;;1.42;0.55;;;;;;;;;;6266811;22;20030;-47
2022/09/19 17:15:44;;;;;;;2.05;0.70;;;;;;;;;;6263156;22;20027;-46
2022/09/19 17:18:19;;;;;;;2.65;0.40;;;;;;;;;;6264234;22;20019;-48
2022/09/19 17:20:46;;;;;;;0.73;0.30;;;;;;;;;;6266285;22;20073;-49
2022/09/19 17:23:14;;;;;;;1.58;0.50;;;;;;;;;;6266204;22;20054;-45
2022/09/19 17:25:53;;;;;;;0.85;0.40;;;;;;;;;;6265118;22;20069;-45
2022/09/19 17:28:20;;;;;;;1.58;0.82;;;;;;;;;;6266181;22;20106;-64
2022/09/19 17:30:55;;;;;;;0.73;0.30;;;;;;;;;;6265750;22;20026;-57
2022/09/19 17:33:24;;;;;;;0.70;0.20;;;;;;;;;;6264789;22;20800;-55
2022/09/19 17:35:52;;;;;;;3.90;0.32;;;;;;;;;;6267533;22;20028;-54
2022/09/19 17:38:26;;;;;;;2.75;0.30;;;;;;;;;;6266164;22;20024;-54
2022/09/19 17:40:53;;;;;;;0.50;0.40;;;;;;;;;;6265951;22;20464;-55
2022/09/19 17:43:27;;;;;;;1.10;0.30;;;;;;;;;;6265422;22;20495;-56
2022/09/19 17:45:59;;;;;;;1.27;0.60;;;;;;;;;;6264998;22;20027;-58
2022/09/19 17:48:26;;;;;;;0.65;0.40;;;;;;;;;;6265468;22;20037;-57
2022/09/19 17:51:11;;;;;;;0.80;0.47;;;;;;;;;;6266420;22;20030;-55
2022/09/19 17:53:45;;;;;;;1.65;0.73;;;;;;;;;;6239933;22;20098;-54
2022/09/19 17:56:21;;;;;;;0.35;0.30;;;;;;;;;;6263673;22;20436;-58
2022/09/19 17:58:56;;;;;;;0.50;0.30;;;;;;;;;;6263410;22;20032;-58
2022/09/19 18:04:17;;;;;;;4.10;0.60;;;;;;;;;;6267021;22;20019;-58
2022/09/19 18:06:45;;;;;;;1.13;0.43;;;;;;;;;;6267106;22;20024;-58
2022/09/19 18:09:14;;;;;;;1.02;0.40;;;;;;;;;;6265323;22;20098;-56
2022/09/19 18:11:48;;;;;;;0.93;0.63;;;;;;;;;;6267440;22;20051;-71
2022/09/19 18:14:16;;;;;;;0.68;0.50;;;;;;;;;;6267928;22;20039;-71
2022/09/19 18:16:44;;;;;;;1.35;0.40;;;;;;;;;;6267098;22;20055;-70
2022/09/19 18:19:17;;;;;;;1.85;0.40;;;;;;;;;;6268144;22;20102;-70
2022/09/19 18:21:47;;;;;;;1.40;0.40;;;;;;;;;;6267824;22;20024;-70
2022/09/19 18:24:15;;;;;;;6.00;0.68;;;;;;;;;;6267117;22;20023;-71
2022/09/19 18:26:48;;;;;;;3.05;0.50;;;;;;;;;;6266827;22;20023;-45
2022/09/19 18:29:22;;;;;;;4.45;0.60;;;;;;;;;;6267247;22;20020;-69
2022/09/19 18:31:56;;;;;;;1.75;0.40;;;;;;;;;;6268286;22;20165;-69
2022/09/19 18:34:30;;;;;;;2.15;0.40;;;;;;;;;;6266840;22;20543;-69
2022/09/19 18:36:58;;;;;;;1.30;0.55;;;;;;;;;;6268662;22;20027;-69
2022/09/19 18:39:25;;;;;;;0.43;0.38;;;;;;;;;;6267287;22;20099;-70
2022/09/19 18:41:58;;;;;;;1.05;0.45;;;;;;;;;;6267907;22;20020;-70
2022/09/19 18:44:25;;;;;;;2.75;0.70;;;;;;;;;;6266848;22;20507;-53
2022/09/19 18:46:59;;;;;;;4.18;0.65;;;;;;;;;;6267739;22;20023;-58
2022/09/19 18:49:26;;;;;;;2.13;0.60;;;;;;;;;;6268373;22;20023;-55
2022/09/19 18:51:53;;;;;;;1.25;0.52;;;;;;;;;;6269879;22;20045;-50
2022/09/19 18:54:29;;;;;;;1.52;0.50;;;;;;;;;;6264180;22;20026;-52
2022/09/19 18:57:03;;;;;;;1.23;0.40;;;;;;;;;;6267759;22;20049;-50
2022/09/19 18:59:37;;;;;;;0.50;0.47;;;;;;;;;;6267217;22;20051;-54
2022/09/19 19:02:05;;;;;;;0.70;0.40;;;;;;;;;;6268055;22;20095;-55
2022/09/19 19:04:33;;;;;;;1.23;0.50;;;;;;;;;;6268408;22;20043;-64
2022/09/19 19:07:06;;;;;;;1.25;0.40;;;;;;;;;;6268653;22;20023;-46
2022/09/19 19:09:35;;;;;;;0.73;0.57;;;;;;;;;;6266888;22;20026;-47
2022/09/19 19:12:03;;;;;;;0.40;0.40;;;;;;;;;;6266651;22;20747;-45
2022/09/19 19:14:57;;;;;;;1.52;0.40;;;;;;;;;;6265220;22;20366;-45
2022/09/19 19:17:25;;;;;;;0.52;0.40;;;;;;;;;;6265260;22;20099;-45
2022/09/19 19:19:59;;;;;;;1.88;0.43;;;;;;;;;;6266250;22;20455;-49
2022/09/19 19:22:27;;;;;;;2.13;0.38;;;;;;;;;;6263512;22;20024;-52
2022/09/19 19:25:00;;;;;;;0.63;0.60;;;;;;;;;;6239908;22;20042;-58
2022/09/19 19:27:28;;;;;;;0.77;0.40;;;;;;;;;;6266201;22;20023;-51
2022/09/19 19:29:55;;;;;;;1.75;0.50;;;;;;;;;;6265102;22;20624;-47
2022/09/19 19:32:28;;;;;;;1.88;0.50;;;;;;;;;;6266977;22;20542;-46
2022/09/19 19:34:55;;;;;;;0.40;0.40;;;;;;;;;;6264911;22;20381;-48
2022/09/19 19:37:29;;;;;;;1.30;0.43;;;;;;;;;;6266985;22;20024;-46
2022/09/19 19:39:56;;;;;;;2.95;0.50;;;;;;;;;;6268273;22;20022;-45
2022/09/19 19:42:24;;;;;;;0.70;0.50;;;;;;;;;;6267881;22;20027;-59
2022/09/19 19:44:57;;;;;;;0.40;0.40;;;;;;;;;;6264930;22;20034;-54
2022/09/19 19:47:24;;;;;;;1.38;0.55;;;;;;;;;;6267609;22;20479;-55
2022/09/19 19:49:53;;;;;;;0.60;0.50;;;;;;;;;;6267475;22;20024;-55
2022/09/19 19:52:27;;;;;;;1.40;0.57;;;;;;;;;;6266371;22;20103;-53
2022/09/19 19:54:54;;;;;;;0.30;0.30;;;;;;;;;;6265272;22;20045;-55
2022/09/19 19:57:35;;;;;;;1.55;0.75;;;;;;;;;;6265061;22;20405;-56
2022/09/19 20:00:03;;;;;;;1.85;0.30;;;;;;;;;;6264966;22;20291;-54
2022/09/19 20:02:46;;;;;;;1.63;0.50;;;;;;;;;;6267400;22;20023;-47
2022/09/19 20:05:26;;;;;;;1.77;0.68;;;;;;;;;;6267667;22;20111;-64
2022/09/19 20:08:00;;;;;;;0.68;0.57;;;;;;;;;;6266547;22;20030;-64
2022/09/19 20:10:28;;;;;;;0.75;0.47;;;;;;;;;;6266245;22;20067;-64
2022/09/19 20:12:55;;;;;;;0.77;0.52;;;;;;;;;;6267200;22;20089;-64
2022/09/19 20:15:29;;;;;;;0.50;0.35;;;;;;;;;;6264479;22;20101;-64
2022/09/19 20:17:56;;;;;;;2.80;0.50;;;;;;;;;;6266744;22;20024;-65
2022/09/19 20:20:31;;;;;;;2.13;0.95;;;;;;;;;;6266910;22;20026;-60
2022/09/19 20:22:58;;;;;;;;;;;;;;;;;;6240123;22;20019;-56
2022/09/19 20:25:26;;;;;;;2.25;0.60;;;;;;;;;;6265932;22;20495;-56
2022/09/19 20:28:00;;;;;;;2.88;0.70;;;;;;;;;;6267638;22;20026;-54
2022/09/19 20:30:28;;;;;;;0.93;0.60;;;;;;;;;;6263164;22;20027;-56
2022/09/19 20:33:03;;;;;;;1.52;0.70;;;;;;;;;;6267351;22;20023;-53
2022/09/19 20:35:30;;;;;;;1.65;0.65;;;;;;;;;;6266773;22;20023;-57
2022/09/19 20:38:05;;;;;;;1.13;0.40;;;;;;;;;;6265257;22;20362;-62
2022/09/19 20:40:32;;;;;;;0.88;0.60;;;;;;;;;;6266462;22;20027;-60
2022/09/19 20:43:00;;;;;;;0.70;0.68;;;;;;;;;;6266117;22;20023;-60
2022/09/19 20:45:33;;;;;;;1.80;0.50;;;;;;;;;;6263709;22;20423;-59
2022/09/19 20:48:01;;;;;;;1.70;0.50;;;;;;;;;;6266615;22;20034;-59
2022/09/19 20:50:56;;;;;;;0.68;0.57;;;;;;;;;;6265840;22;20015;-59
2022/09/19 20:53:27;;;;;;;1.70;0.60;;;;;;;;;;6267100;22;20103;-59
2022/09/19 20:56:11;;;;;;;0.90;0.50;;;;;;;;;;6264115;22;20049;-59
2022/09/19 20:58:38;;;;;;;2.63;0.60;;;;;;;;;;6266100;22;20015;-55
2022/09/19 21:01:14;;;;;;;1.38;0.70;;;;;;;;;;6266872;22;20027;-59
2022/09/19 21:03:42;;;;;;;1.40;0.60;;;;;;;;;;6264940;22;20528;-59
2022/09/19 21:06:12;;;;;;;0.60;0.60;;;;;;;;;;6266168;22;20027;-59
2022/09/19 21:08:47;;;;;;;2.33;0.73;;;;;;;;;;6266583;22;20095;-59
2022/09/19 21:11:14;;;;;;;1.73;0.80;;;;;;;;;;6266380;22;20020;-59
2022/09/19 21:13:50;;;;;;;2.75;0.52;;;;;;;;;;6266102;22;20031;-59
2022/09/19 21:16:19;;;;;;;0.88;0.68;;;;;;;;;;6263735;22;20047;-60
2022/09/19 21:18:54;;;;;;;0.50;0.50;;;;;;;;;;6267463;22;20090;-48
2022/09/19 21:21:23;;;;;;;2.10;0.70;;;;;;;;;;6267659;22;20023;-60
2022/09/19 21:23:57;;;;;;;3.33;0.90;;;;;;;;;;6267885;22;20020;-59
2022/09/19 21:26:31;;;;;;;0.45;0.40;;;;;;;;;;6269456;22;20030;-59
2022/09/19 21:29:20;;;;;;;0.88;0.50;;;;;;;;;;6269358;22;20513;-60
2022/09/19 21:31:47;;;;;;;3.63;0.70;;;;;;;;;;6269302;22;20094;-59
2022/09/19 21:34:20;;;;;;;1.90;0.90;;;;;;;;;;6269017;22;20026;-59
2022/09/19 21:36:54;;;;;;;1.65;0.70;;;;;;;;;;6268655;22;20465;-45
2022/09/19 21:39:21;;;;;;;1.30;0.68;;;;;;;;;;6269328;22;20030;-45
2022/09/19 21:41:55;;;;;;;1.35;0.80;;;;;;;;;;6268889;22;20024;-45
2022/09/19 21:44:22;;;;;;;1.02;0.50;;;;;;;;;;6269741;22;20020;-46
2022/09/19 21:46:49;;;;;;;1.08;0.70;;;;;;;;;;6271450;22;20020;-44
2022/09/19 21:49:23;;;;;;;0.50;0.50;;;;;;;;;;6271625;22;20026;-49
2022/09/19 21:51:51;;;;;;;3.50;0.63;;;;;;;;;;6272253;22;20146;-45
2022/09/19 21:54:24;;;;;;;2.05;0.50;;;;;;;;;;6271548;22;20430;-73
2022/09/19 21:56:58;;;;;;;1.27;0.38;;;;;;;;;;6271519;22;20030;-65
2022/09/19 21:59:38;;;;;;;1.02;0.43;;;;;;;;;;6271530;22;20020;-65
2022/09/19 22:02:05;;;;;;;1.85;0.60;;;;;;;;;;6271420;22;20073;-66
2022/09/19 22:04:39;;;;;;;0.80;0.65;;;;;;;;;;6271924;22;20093;-63
2022/09/19 22:07:06;;;;;;;0.43;0.43;;;;;;;;;;6271599;22;20450;-64
2022/09/19 22:09:40;;;;;;;4.05;0.50;;;;;;;;;;6271546;22;20058;-65
2022/09/19 22:12:08;;;;;;;2.33;0.70;;;;;;;;;;6271313;22;20023;-65
2022/09/19 22:15:02;;;;;;;1.85;0.43;;;;;;;;;;6269801;22;20057;-54
2022/09/19 22:17:29;;;;;;;2.05;0.50;;;;;;;;;;6269904;22;20020;-55
2022/09/19 22:20:03;;;;;;;3.38;0.50;;;;;;;;;;6271310;22;20019;-54
2022/09/19 22:22:31;;;;;;;1.75;0.65;;;;;;;;;;6270816;22;20034;-56
2022/09/19 22:25:04;;;;;;;1.33;0.60;;;;;;;;;;6270243;22;20115;-55
2022/09/19 22:27:32;;;;;;;5.03;0.50;;;;;;;;;;6269952;22;20408;-57
2022/09/19 22:29:59;;;;;;;1.58;0.47;;;;;;;;;;6267570;22;20130;-56
2022/09/19 22:32:33;;;;;;;2.65;0.38;;;;;;;;;;6270825;22;20466;-73
2022/09/19 22:35:00;;;;;;;1.17;0.77;;;;;;;;;;6271647;22;20027;-46
2022/09/19 22:37:38;;;;;;;0.40;0.40;;;;;;;;;;6271810;22;20022;-54
2022/09/19 22:40:06;;;;;;;2.53;0.40;;;;;;;;;;6272058;22;20020;-52
2022/09/19 22:42:40;;;;;;;3.83;0.50;;;;;;;;;;6271148;22;20071;-54
2022/09/19 22:45:08;;;;;;;0.60;0.60;;;;;;;;;;6270363;22;20357;-48
2022/09/19 22:47:42;;;;;;;0.30;0.30;;;;;;;;;;6269743;22;20461;-51
2022/09/19 22:50:09;;;;;;;0.32;0.32;;;;;;;;;;6270452;22;20020;-51
2022/09/19 22:52:43;;;;;;;3.00;0.63;;;;;;;;;;6271588;22;20026;-48
2022/09/19 22:55:19;;;;;;;0.47;0.40;;;;;;;;;;6271439;22;20047;-50
2022/09/19 22:58:00;;;;;;;0.30;0.30;;;;;;;;;;6268872;22;20503;-65
2022/09/19 23:00:27;;;;;;;1.83;0.60;;;;;;;;;;6271273;22;20043;-64
2022/09/19 23:03:02;;;;;;;0.68;0.50;;;;;;;;;;6269858;22;20026;-64
2022/09/19 23:05:30;;;;;;;0.77;0.40;;;;;;;;;;6269401;22;20019;-65
2022/09/19 23:07:58;;;;;;;0.85;0.57;;;;;;;;;;6271318;22;20023;-65
2022/09/19 23:10:31;;;;;;;1.80;0.68;;;;;;;;;;6271804;22;20364;-53
2022/09/19 23:15:51;;;;;;;0.40;0.40;;;;;;;;;;6269583;22;20026;-65
2022/09/19 23:18:18;;;;;;;0.30;0.30;;;;;;;;;;6270142;22;20102;-65
2022/09/19 23:20:57;;;;;;;0.30;0.30;;;;;;;;;;6271012;22;20016;-64
2022/09/19 23:23:24;;;;;;;0.50;0.50;;;;;;;;;;6268811;22;20020;-65
2022/09/19 23:25:51;;;;;;;5.15;0.80;;;;;;;;;;6270215;22;20103;-64
2022/09/19 23:28:24;;;;;;;0.90;0.52;;;;;;;;;;6269490;22;20026;-65
2022/09/19 23:31:02;;;;;;;0.73;0.50;;;;;;;;;;6269706;22;20023;-59
2022/09/19 23:33:29;;;;;;;1.35;0.85;;;;;;;;;;6270115;22;20849;-59
2022/09/19 23:36:05;;;;;;;2.35;0.47;;;;;;;;;;6269896;22;20023;-65
2022/09/19 23:38:33;;;;;;;0.75;0.57;;;;;;;;;;6270443;22;20098;-65
2022/09/19 23:41:07;;;;;;;0.73;0.45;;;;;;;;;;6269402;22;20028;-64
2022/09/19 23:43:48;;;;;;;0.52;0.43;;;;;;;;;;6269629;22;20051;-65
2022/09/19 23:46:23;;;;;;;0.73;0.57;;;;;;;;;;6268781;22;20016;-65
2022/09/19 23:48:50;;;;;;;;;;;;;;;;;;6269414;22;20023;-65
2022/09/19 23:51:18;;;;;;;3.20;0.52;;;;;;;;;;6269211;22;19919;-55
2022/09/19 23:53:56;;;;;;;1.45;0.77;;;;;;;;;;6270846;22;20015;-58
2022/09/19 23:56:24;;;;;;;0.40;0.40;;;;;;;;;;6268364;22;20023;-59
2022/09/19 23:59:05;;;;;;;0.40;0.40;;;;;;;;;;6269246;22;20094;-58
